Time;durP1;ratioP1;P1;durP2;ratioP2;P2;SDS_P1;SDS_P2;PMS_P1;PMS_P2;Temp;Humidity;BMP_temperature;BMP_pressure;BME280_temperature;BME280_humidity;BME280_pressure;Samples;Min_cycle;Max_cycle;Signal;HPM_P1;HPM_P2
2022/12/21 00:02:23;;;;;;;173.75;15.57;;;;;;;;;;5092711;28;20474;-56
2022/12/21 00:04:53;;;;;;;144.38;13.85;;;;;;;;;;5091404;28;20028;-53
2022/12/21 00:07:20;;;;;;;139.73;13.18;;;;;;;;;;5084539;28;20024;-55
2022/12/21 00:09:48;;;;;;;128.27;12.57;;;;;;;;;;5091718;28;20032;-52
2022/12/21 00:12:14;;;;;;;222.85;17.55;;;;;;;;;;5090306;28;20039;-51
2022/12/21 00:14:41;;;;;;;250.45;21.35;;;;;;;;;;5092103;28;20047;-52
2022/12/21 00:17:08;;;;;;;211.70;18.20;;;;;;;;;;5092338;28;20709;-55
2022/12/21 00:19:35;;;;;;;274.65;23.00;;;;;;;;;;5090588;28;20115;-53
2022/12/21 00:22:23;;;;;;;279.60;23.75;;;;;;;;;;5090573;28;20047;-55
2022/12/21 00:24:50;;;;;;;227.02;17.60;;;;;;;;;;5091672;28;20048;-52
2022/12/21 00:27:17;;;;;;;172.98;16.20;;;;;;;;;;5073045;28;20027;-57
2022/12/21 00:29:44;;;;;;;192.82;14.65;;;;;;;;;;5091793;28;20024;-54
2022/12/21 00:32:11;;;;;;;158.77;13.10;;;;;;;;;;5091618;28;20060;-49
2022/12/21 00:34:38;;;;;;;123.63;11.82;;;;;;;;;;5091327;28;20503;-50
2022/12/21 00:37:05;;;;;;;110.07;10.52;;;;;;;;;;5091751;28;20028;-54
2022/12/21 00:39:32;;;;;;;106.97;9.50;;;;;;;;;;5091201;28;20028;-56
2022/12/21 00:41:59;;;;;;;95.20;8.60;;;;;;;;;;5072737;28;20043;-56
2022/12/21 00:44:26;;;;;;;77.03;8.48;;;;;;;;;;5091811;28;20035;-57
2022/12/21 00:46:53;;;;;;;59.45;7.75;;;;;;;;;;5091747;28;20024;-57
2022/12/21 00:49:20;;;;;;;75.15;7.38;;;;;;;;;;5091231;28;20038;-58
2022/12/21 00:51:48;;;;;;;56.20;7.32;;;;;;;;;;5073355;28;20036;-57
2022/12/21 00:54:15;;;;;;;55.38;6.95;;;;;;;;;;5091239;28;20135;-55
2022/12/21 00:56:42;;;;;;;46.05;5.70;;;;;;;;;;5091466;28;20812;-56
2022/12/21 00:59:09;;;;;;;50.35;5.68;;;;;;;;;;5091547;28;20047;-56
2022/12/21 01:01:36;;;;;;;42.80;5.13;;;;;;;;;;5090874;28;20028;-55
2022/12/21 01:04:03;;;;;;;34.90;6.10;;;;;;;;;;5073342;28;20039;-57
2022/12/21 01:06:33;;;;;;;52.10;5.00;;;;;;;;;;5095788;28;20111;-54
2022/12/21 01:09:00;;;;;;;46.55;4.93;;;;;;;;;;5095310;28;20410;-55
2022/12/21 01:11:28;;;;;;;49.42;5.38;;;;;;;;;;5095235;28;20035;-55
2022/12/21 01:13:55;;;;;;;37.88;5.10;;;;;;;;;;5095676;28;20024;-57
2022/12/21 01:16:25;;;;;;;46.20;5.00;;;;;;;;;;5087804;28;20508;-56
2022/12/21 01:18:52;;;;;;;34.92;4.70;;;;;;;;;;5074734;28;20029;-54
2022/12/21 01:21:23;;;;;;;40.08;3.70;;;;;;;;;;5075254;28;20028;-53
2022/12/21 01:23:50;;;;;;;32.35;3.63;;;;;;;;;;5075093;28;20040;-57
2022/12/21 01:26:18;;;;;;;24.35;4.13;;;;;;;;;;5074939;28;20032;-55
2022/12/21 01:28:45;;;;;;;31.15;3.67;;;;;;;;;;5074986;28;20024;-57
2022/12/21 01:31:12;;;;;;;21.48;3.40;;;;;;;;;;5074836;28;20049;-55
2022/12/21 01:33:39;;;;;;;23.85;2.95;;;;;;;;;;5074555;28;20108;-51
2022/12/21 01:36:10;;;;;;;38.30;4.03;;;;;;;;;;5074747;28;20406;-52
2022/12/21 01:38:40;;;;;;;35.35;4.28;;;;;;;;;;5075025;28;20040;-56
2022/12/21 01:41:07;;;;;;;40.28;4.05;;;;;;;;;;5074645;28;20070;-56
2022/12/21 01:43:48;;;;;;;22.73;3.50;;;;;;;;;;5074611;28;20043;-56
2022/12/21 01:46:28;;;;;;;26.15;2.90;;;;;;;;;;5074694;28;20029;-56
2022/12/21 01:49:04;;;;;;;27.23;3.55;;;;;;;;;;5074441;28;20025;-55
2022/12/21 01:51:34;;;;;;;23.23;3.10;;;;;;;;;;5074376;28;20025;-51
2022/12/21 01:54:07;;;;;;;17.55;2.75;;;;;;;;;;5074410;28;20044;-57
2022/12/21 01:56:37;;;;;;;26.02;2.88;;;;;;;;;;5074436;28;20394;-57
2022/12/21 01:59:09;;;;;;;20.88;2.53;;;;;;;;;;5074462;28;20039;-57
2022/12/21 02:01:36;;;;;;;;;;;;;;;;;;5074877;28;20094;-57
2022/12/21 02:04:03;;;;;;;15.15;2.33;;;;;;;;;;5074166;28;19909;-54
2022/12/21 02:06:30;;;;;;;19.40;2.30;;;;;;;;;;5074468;28;20047;-55
2022/12/21 02:08:58;;;;;;;15.40;1.95;;;;;;;;;;5074443;28;20107;-57
2022/12/21 02:11:25;;;;;;;13.60;2.30;;;;;;;;;;5086097;28;20043;-57
2022/12/21 02:13:52;;;;;;;18.60;3.03;;;;;;;;;;5093813;28;20136;-54
2022/12/21 02:16:25;;;;;;;22.67;2.95;;;;;;;;;;5093253;28;20089;-56
2022/12/21 02:18:53;;;;;;;24.73;2.83;;;;;;;;;;5093377;28;20794;-57
2022/12/21 02:24:24;;;;;;;31.48;2.92;;;;;;;;;;5092021;28;20086;-50
2022/12/21 02:26:54;;;;;;;27.45;2.65;;;;;;;;;;5091546;28;20028;-56
2022/12/21 02:29:38;;;;;;;20.80;2.05;;;;;;;;;;5091945;28;20103;-55
2022/12/21 02:32:13;;;;;;;18.08;2.65;;;;;;;;;;5091526;28;20466;-56
2022/12/21 02:34:41;;;;;;;18.85;2.47;;;;;;;;;;5092443;28;20047;-58
2022/12/21 02:37:23;;;;;;;13.82;1.67;;;;;;;;;;5092405;28;20031;-57
2022/12/21 02:39:56;;;;;;;19.08;2.10;;;;;;;;;;5089542;28;20028;-56
2022/12/21 02:45:17;;;;;;;12.55;2.28;;;;;;;;;;5091192;28;20043;-57
2022/12/21 02:47:52;;;;;;;10.23;1.80;;;;;;;;;;5092428;28;20020;-57
2022/12/21 02:50:23;;;;;;;10.70;1.92;;;;;;;;;;5092672;28;20091;-55
2022/12/21 02:52:53;;;;;;;13.33;2.00;;;;;;;;;;5089605;28;20130;-55
2022/12/21 02:55:21;;;;;;;15.10;1.90;;;;;;;;;;5092326;28;20344;-54
2022/12/21 02:57:49;;;;;;;17.42;2.38;;;;;;;;;;5092292;28;20027;-55
2022/12/21 03:00:18;;;;;;;13.00;2.10;;;;;;;;;;5091919;28;20020;-55
2022/12/21 03:02:45;;;;;;;21.20;2.15;;;;;;;;;;5091911;28;20018;-57
2022/12/21 03:05:19;;;;;;;11.98;2.35;;;;;;;;;;5092245;28;20024;-56
2022/12/21 03:07:54;;;;;;;9.88;1.85;;;;;;;;;;5092258;28;20028;-57
2022/12/21 03:10:22;;;;;;;13.85;1.90;;;;;;;;;;5091505;28;20429;-56
2022/12/21 03:13:13;;;;;;;17.38;2.22;;;;;;;;;;5089158;28;20028;-54
2022/12/21 03:15:56;;;;;;;11.60;1.90;;;;;;;;;;5062142;28;20458;-56
2022/12/21 03:18:32;;;;;;;13.27;2.10;;;;;;;;;;5091297;28;20367;-57
2022/12/21 03:21:06;;;;;;;13.23;1.83;;;;;;;;;;5090408;28;20024;-57
2022/12/21 03:23:37;;;;;;;11.18;2.15;;;;;;;;;;5089434;28;20114;-57
2022/12/21 03:26:13;;;;;;;16.00;2.10;;;;;;;;;;5091914;28;20055;-57
2022/12/21 03:28:42;;;;;;;19.15;2.30;;;;;;;;;;5090819;28;20067;-57
2022/12/21 03:31:18;;;;;;;9.80;1.92;;;;;;;;;;5089042;28;20095;-56
2022/12/21 03:33:49;;;;;;;8.98;2.13;;;;;;;;;;5090774;28;20108;-56
2022/12/21 03:36:27;;;;;;;9.15;1.80;;;;;;;;;;5091844;28;20062;-58
2022/12/21 03:38:57;;;;;;;11.73;1.95;;;;;;;;;;5089440;28;20016;-56
2022/12/21 03:41:35;;;;;;;14.48;1.98;;;;;;;;;;5090593;28;20028;-54
2022/12/21 03:44:05;;;;;;;22.20;2.40;;;;;;;;;;5091924;28;20074;-54
2022/12/21 03:46:51;;;;;;;17.83;2.25;;;;;;;;;;5092754;28;20028;-57
2022/12/21 03:49:24;;;;;;;13.35;2.10;;;;;;;;;;5092836;28;20446;-56
2022/12/21 03:51:54;;;;;;;17.38;2.17;;;;;;;;;;5091950;28;20099;-53
2022/12/21 03:54:36;;;;;;;14.68;2.08;;;;;;;;;;5089425;28;20097;-56
2022/12/21 03:57:04;;;;;;;19.75;1.73;;;;;;;;;;5092977;28;20028;-54
2022/12/21 03:59:31;;;;;;;9.85;2.00;;;;;;;;;;5092775;28;20031;-53
2022/12/21 04:02:16;;;;;;;9.73;1.88;;;;;;;;;;5092578;28;20091;-55
2022/12/21 04:04:51;;;;;;;10.25;1.35;;;;;;;;;;5092650;28;20714;-51
2022/12/21 04:07:23;;;;;;;17.08;2.25;;;;;;;;;;5092679;28;20359;-52
2022/12/21 04:09:56;;;;;;;8.63;1.98;;;;;;;;;;5092353;28;20043;-55
2022/12/21 04:12:36;;;;;;;12.50;1.80;;;;;;;;;;5092135;28;20149;-51
2022/12/21 04:15:07;;;;;;;9.00;1.60;;;;;;;;;;5092263;28;20153;-50
2022/12/21 04:17:34;;;;;;;13.75;1.80;;;;;;;;;;5092300;28;20016;-48
2022/12/21 04:20:02;;;;;;;8.07;1.90;;;;;;;;;;5092344;28;20047;-54
2022/12/21 04:28:08;;;;;;;10.80;1.75;;;;;;;;;;5092614;28;20149;-55
2022/12/21 04:30:39;;;;;;;11.50;1.58;;;;;;;;;;5092321;28;20024;-54
2022/12/21 04:33:07;;;;;;;12.98;1.85;;;;;;;;;;5091984;28;20521;-54
2022/12/21 04:35:34;;;;;;;11.70;1.65;;;;;;;;;;5092166;28;20074;-52
2022/12/21 04:38:01;;;;;;;8.60;1.60;;;;;;;;;;5092054;28;20080;-52
2022/12/21 04:40:28;;;;;;;8.85;1.92;;;;;;;;;;5092148;28;20530;-54
2022/12/21 04:42:55;;;;;;;9.85;1.85;;;;;;;;;;5092008;28;20070;-53
2022/12/21 04:45:22;;;;;;;12.98;1.40;;;;;;;;;;5089862;28;20028;-54
2022/12/21 04:47:53;;;;;;;11.35;1.80;;;;;;;;;;5092122;28;20024;-53
2022/12/21 04:50:19;;;;;;;10.43;1.75;;;;;;;;;;5092086;28;20069;-53
2022/12/21 04:52:46;;;;;;;12.70;1.88;;;;;;;;;;5107228;28;20096;-52
2022/12/21 04:55:13;;;;;;;8.98;2.05;;;;;;;;;;5091989;28;20028;-52
2022/12/21 04:57:40;;;;;;;9.00;1.60;;;;;;;;;;5092092;28;20028;-53
2022/12/21 05:00:07;;;;;;;8.43;1.30;;;;;;;;;;5091942;28;20150;-51
2022/12/21 05:02:34;;;;;;;15.85;1.70;;;;;;;;;;5091906;28;20077;-53
2022/12/21 05:05:01;;;;;;;17.05;1.80;;;;;;;;;;5092020;28;20024;-55
2022/12/21 05:07:28;;;;;;;14.55;1.75;;;;;;;;;;5091952;28;20525;-54
2022/12/21 05:09:55;;;;;;;12.25;1.67;;;;;;;;;;5091865;28;20095;-52
2022/12/21 05:12:22;;;;;;;9.60;1.77;;;;;;;;;;5091822;28;20496;-52
2022/12/21 05:14:49;;;;;;;13.65;1.63;;;;;;;;;;5091690;28;20064;-52
2022/12/21 05:17:16;;;;;;;10.18;1.58;;;;;;;;;;5091897;28;20035;-55
2022/12/21 05:19:46;;;;;;;13.85;1.77;;;;;;;;;;5091829;28;20040;-52
2022/12/21 05:22:16;;;;;;;10.48;1.70;;;;;;;;;;5091572;28;20032;-51
2022/12/21 05:24:46;;;;;;;13.95;1.90;;;;;;;;;;5091733;28;20408;-51
2022/12/21 05:27:13;;;;;;;10.75;1.48;;;;;;;;;;5091820;28;20028;-51
2022/12/21 05:29:40;;;;;;;8.70;1.33;;;;;;;;;;5091782;28;20020;-53
2022/12/21 05:32:07;;;;;;;7.68;1.48;;;;;;;;;;5091577;28;20052;-52
2022/12/21 05:34:34;;;;;;;11.73;1.88;;;;;;;;;;5091637;28;20059;-52
2022/12/21 05:37:01;;;;;;;7.32;1.23;;;;;;;;;;5091708;28;20064;-53
2022/12/21 05:39:28;;;;;;;9.27;1.45;;;;;;;;;;5091968;28;20406;-54
2022/12/21 05:41:54;;;;;;;6.65;1.48;;;;;;;;;;5091624;28;20032;-53
2022/12/21 05:44:21;;;;;;;9.90;2.00;;;;;;;;;;5091545;28;20557;-55
2022/12/21 05:46:48;;;;;;;11.15;1.98;;;;;;;;;;5091644;28;20034;-52
2022/12/21 05:49:15;;;;;;;8.90;1.50;;;;;;;;;;5091705;28;20078;-50
2022/12/21 05:51:43;;;;;;;13.45;1.85;;;;;;;;;;5094297;28;20028;-51
2022/12/21 05:54:10;;;;;;;11.43;1.80;;;;;;;;;;5094986;28;20441;-54
2022/12/21 05:56:37;;;;;;;9.73;1.60;;;;;;;;;;5095090;28;20032;-51
2022/12/21 05:59:04;;;;;;;10.80;1.25;;;;;;;;;;5095200;28;20493;-50
2022/12/21 06:01:32;;;;;;;11.43;1.67;;;;;;;;;;5093032;28;20085;-54
2022/12/21 06:03:58;;;;;;;7.63;1.58;;;;;;;;;;5094908;28;20111;-53
2022/12/21 06:06:25;;;;;;;5.40;1.30;;;;;;;;;;5094844;28;20027;-52
2022/12/21 06:08:53;;;;;;;7.88;1.40;;;;;;;;;;5094814;28;20070;-49
2022/12/21 06:11:21;;;;;;;15.20;1.52;;;;;;;;;;5094990;28;20027;-56
2022/12/21 06:13:48;;;;;;;12.75;1.30;;;;;;;;;;5095003;28;20031;-52
2022/12/21 06:16:17;;;;;;;9.73;1.52;;;;;;;;;;5094839;28;20032;-51
2022/12/21 06:18:44;;;;;;;7.60;1.30;;;;;;;;;;5094726;28;20016;-56
2022/12/21 06:21:12;;;;;;;8.40;1.23;;;;;;;;;;5094582;28;20034;-54
2022/12/21 06:23:39;;;;;;;12.52;1.52;;;;;;;;;;5094594;28;20095;-51
2022/12/21 06:26:07;;;;;;;8.70;1.70;;;;;;;;;;5094599;28;20154;-55
2022/12/21 06:28:34;;;;;;;8.90;1.55;;;;;;;;;;5094552;28;20477;-52
2022/12/21 06:33:33;;;;;;;11.25;1.60;;;;;;;;;;5069550;28;20063;-46
2022/12/21 06:36:00;;;;;;;9.82;1.20;;;;;;;;;;5074149;28;20021;-45
2022/12/21 06:38:27;;;;;;;7.47;1.08;;;;;;;;;;5074103;28;20561;-47
2022/12/21 06:40:55;;;;;;;9.55;1.38;;;;;;;;;;5073020;28;20074;-46
2022/12/21 06:43:22;;;;;;;11.25;1.75;;;;;;;;;;5073899;28;20028;-49
2022/12/21 06:45:59;;;;;;;5.43;1.20;;;;;;;;;;5074020;28;20025;-45
2022/12/21 06:48:27;;;;;;;10.82;1.38;;;;;;;;;;5073921;28;20022;-46
2022/12/21 06:50:58;;;;;;;9.48;1.35;;;;;;;;;;5073885;28;20091;-45
2022/12/21 06:53:25;;;;;;;10.75;1.30;;;;;;;;;;5073651;28;20052;-48
2022/12/21 06:56:06;;;;;;;15.75;1.30;;;;;;;;;;5073758;28;20438;-45
2022/12/21 06:58:33;;;;;;;10.65;1.85;;;;;;;;;;5073642;28;20020;-48
2022/12/21 07:01:05;;;;;;;15.75;1.90;;;;;;;;;;5073572;28;20432;-47
2022/12/21 07:03:32;;;;;;;14.63;1.58;;;;;;;;;;5073298;28;20024;-45
2022/12/21 07:05:59;;;;;;;18.77;2.08;;;;;;;;;;5073309;28;20108;-46
2022/12/21 07:08:26;;;;;;;9.73;1.30;;;;;;;;;;5073462;28;20020;-46
2022/12/21 07:10:56;;;;;;;8.13;1.42;;;;;;;;;;5073456;28;20031;-45
2022/12/21 07:13:24;;;;;;;8.77;1.60;;;;;;;;;;5073183;28;20135;-45
2022/12/21 07:15:51;;;;;;;11.68;1.70;;;;;;;;;;5073246;28;20020;-45
2022/12/21 07:18:17;;;;;;;16.45;1.98;;;;;;;;;;5073250;28;20488;-46
2022/12/21 07:20:44;;;;;;;19.00;1.77;;;;;;;;;;5073079;28;20402;-45
2022/12/21 07:23:11;;;;;;;11.15;1.65;;;;;;;;;;5073082;28;20036;-46
2022/12/21 07:25:38;;;;;;;16.02;1.75;;;;;;;;;;5073095;28;20024;-45
2022/12/21 07:28:05;;;;;;;10.68;1.70;;;;;;;;;;5073263;28;20478;-46
2022/12/21 07:30:32;;;;;;;15.85;1.70;;;;;;;;;;5073008;28;20383;-45
2022/12/21 07:32:59;;;;;;;9.85;1.83;;;;;;;;;;5072769;28;20436;-47
2022/12/21 07:35:26;;;;;;;10.32;1.50;;;;;;;;;;5072985;28;20236;-45
2022/12/21 07:37:53;;;;;;;11.40;1.65;;;;;;;;;;5072929;28;20390;-46
2022/12/21 07:40:20;;;;;;;11.60;1.65;;;;;;;;;;5072777;28;20039;-48
2022/12/21 07:42:47;;;;;;;9.90;1.92;;;;;;;;;;5072643;28;20486;-46
2022/12/21 07:45:15;;;;;;;15.23;1.90;;;;;;;;;;5072780;28;20024;-47
2022/12/21 07:47:42;;;;;;;12.25;1.52;;;;;;;;;;5072806;28;20033;-45
2022/12/21 07:50:09;;;;;;;13.10;2.10;;;;;;;;;;5072669;28;20036;-45
2022/12/21 07:52:38;;;;;;;14.10;1.95;;;;;;;;;;5072473;28;20039;-46
2022/12/21 07:55:06;;;;;;;17.85;1.95;;;;;;;;;;5072518;28;20064;-48
2022/12/21 07:57:32;;;;;;;16.65;1.95;;;;;;;;;;5072531;28;20024;-45
2022/12/21 07:59:59;;;;;;;19.42;1.60;;;;;;;;;;5072444;28;20024;-47
2022/12/21 08:02:26;;;;;;;13.32;1.95;;;;;;;;;;5072398;28;20024;-45
2022/12/21 08:04:53;;;;;;;12.38;2.03;;;;;;;;;;5072437;28;20029;-45
2022/12/21 08:07:20;;;;;;;11.25;1.63;;;;;;;;;;5072395;28;20036;-48
2022/12/21 08:09:47;;;;;;;10.80;1.58;;;;;;;;;;5072416;28;20035;-48
2022/12/21 08:12:14;;;;;;;11.02;2.00;;;;;;;;;;5072267;28;20016;-45
2022/12/21 08:14:41;;;;;;;11.40;1.70;;;;;;;;;;5071707;28;20039;-48
2022/12/21 08:17:08;;;;;;;10.63;1.65;;;;;;;;;;5072095;28;20056;-46
2022/12/21 08:19:35;;;;;;;12.63;2.08;;;;;;;;;;5072195;28;20032;-48
2022/12/21 08:22:02;;;;;;;11.98;2.30;;;;;;;;;;5071979;28;20401;-46
2022/12/21 08:24:29;;;;;;;16.13;2.00;;;;;;;;;;5072137;28;20020;-46
2022/12/21 08:26:56;;;;;;;10.32;1.70;;;;;;;;;;5072149;28;20048;-52
2022/12/21 08:29:23;;;;;;;13.57;1.80;;;;;;;;;;5072150;28;20020;-53
2022/12/21 08:31:50;;;;;;;9.60;1.80;;;;;;;;;;5071829;28;20041;-50
2022/12/21 08:34:17;;;;;;;15.35;1.85;;;;;;;;;;5072105;28;20440;-51
2022/12/21 08:36:44;;;;;;;11.85;1.70;;;;;;;;;;5072026;28;20103;-49
2022/12/21 08:39:11;;;;;;;11.23;1.85;;;;;;;;;;5072076;28;20119;-49
2022/12/21 08:41:38;;;;;;;7.88;1.88;;;;;;;;;;5071828;28;20112;-48
2022/12/21 08:44:06;;;;;;;10.63;1.67;;;;;;;;;;5071951;28;20024;-49
2022/12/21 08:46:33;;;;;;;11.55;1.83;;;;;;;;;;5072059;28;20025;-49
2022/12/21 08:49:00;;;;;;;10.07;2.30;;;;;;;;;;5071886;28;20028;-51
2022/12/21 08:51:27;;;;;;;12.90;1.83;;;;;;;;;;5071751;28;20039;-48
2022/12/21 08:53:54;;;;;;;11.20;1.75;;;;;;;;;;5071705;28;20033;-46
2022/12/21 08:56:22;;;;;;;10.85;2.28;;;;;;;;;;5071903;28;20033;-52
2022/12/21 08:58:49;;;;;;;11.07;1.73;;;;;;;;;;5071819;28;20056;-47
2022/12/21 09:01:19;;;;;;;9.27;1.92;;;;;;;;;;5071704;28;20120;-45
2022/12/21 09:03:46;;;;;;;13.50;2.10;;;;;;;;;;5071805;28;20525;-48
2022/12/21 09:06:13;;;;;;;10.35;1.90;;;;;;;;;;5071676;28;20033;-46
2022/12/21 09:08:40;;;;;;;6.72;1.80;;;;;;;;;;5071662;28;20029;-48
2022/12/21 09:11:09;;;;;;;10.85;1.77;;;;;;;;;;5071668;28;20103;-51
2022/12/21 09:13:37;;;;;;;6.35;1.95;;;;;;;;;;5070981;28;20084;-48
2022/12/21 09:16:04;;;;;;;7.32;1.60;;;;;;;;;;5071583;28;20481;-51
2022/12/21 09:18:31;;;;;;;9.90;2.08;;;;;;;;;;5071514;28;20124;-46
2022/12/21 09:21:01;;;;;;;8.60;1.70;;;;;;;;;;5071508;28;20024;-47
2022/12/21 09:23:28;;;;;;;12.32;1.98;;;;;;;;;;5071467;28;20421;-48
2022/12/21 09:25:55;;;;;;;11.65;2.03;;;;;;;;;;5073749;28;20448;-46
2022/12/21 09:28:22;;;;;;;10.45;2.00;;;;;;;;;;5075355;28;20025;-48
2022/12/21 09:30:49;;;;;;;9.98;1.67;;;;;;;;;;5075419;28;20063;-46
2022/12/21 09:33:16;;;;;;;11.32;1.83;;;;;;;;;;5075152;28;20489;-46
2022/12/21 09:35:43;;;;;;;9.52;2.00;;;;;;;;;;5075671;28;20064;-48
2022/12/21 09:38:10;;;;;;;8.95;2.00;;;;;;;;;;5075350;28;20020;-45
2022/12/21 09:40:37;;;;;;;8.05;1.63;;;;;;;;;;5075162;28;20035;-45
2022/12/21 09:43:22;;;;;;;7.40;1.80;;;;;;;;;;5075160;28;20032;-48
2022/12/21 09:46:02;;;;;;;9.82;1.65;;;;;;;;;;5075261;28;20489;-45
2022/12/21 09:48:41;;;;;;;10.98;1.90;;;;;;;;;;5075120;28;20032;-48
2022/12/21 09:51:10;;;;;;;9.68;1.77;;;;;;;;;;5075000;28;20024;-45
2022/12/21 09:53:40;;;;;;;13.05;1.98;;;;;;;;;;5075175;28;20037;-45
2022/12/21 09:56:07;;;;;;;16.58;2.50;;;;;;;;;;5075140;28;20028;-46
2022/12/21 09:58:34;;;;;;;14.18;2.08;;;;;;;;;;5075309;28;20356;-47
2022/12/21 10:01:16;;;;;;;12.15;1.98;;;;;;;;;;5074953;28;20028;-47
2022/12/21 10:04:02;;;;;;;22.23;2.90;;;;;;;;;;5075187;28;20040;-48
2022/12/21 10:06:47;;;;;;;22.58;2.35;;;;;;;;;;5074926;28;20085;-46
2022/12/21 10:09:17;;;;;;;20.10;2.92;;;;;;;;;;5074998;28;20055;-46
2022/12/21 10:11:50;;;;;;;12.07;2.33;;;;;;;;;;5074770;28;20110;-50
2022/12/21 10:14:29;;;;;;;15.13;1.90;;;;;;;;;;5074783;28;20073;-46
2022/12/21 10:17:02;;;;;;;14.40;2.20;;;;;;;;;;5074805;28;20082;-47
2022/12/21 10:19:34;;;;;;;14.02;1.90;;;;;;;;;;5074895;28;20032;-47
2022/12/21 10:22:30;;;;;;;20.08;2.63;;;;;;;;;;5074567;28;20040;-46
2022/12/21 10:25:05;;;;;;;14.05;2.10;;;;;;;;;;5053871;28;20044;-45
2022/12/21 10:27:42;;;;;;;13.98;2.17;;;;;;;;;;5074754;28;20052;-45
2022/12/21 10:30:12;;;;;;;15.50;2.45;;;;;;;;;;5074607;28;20029;-46
2022/12/21 10:32:41;;;;;;;13.57;1.80;;;;;;;;;;5074223;28;20076;-49
2022/12/21 10:35:20;;;;;;;11.35;1.80;;;;;;;;;;5074617;28;20103;-45
2022/12/21 10:37:54;;;;;;;16.25;2.30;;;;;;;;;;5074091;28;20098;-46
2022/12/21 10:40:23;;;;;;;16.67;2.30;;;;;;;;;;5074322;28;20020;-46
2022/12/21 10:42:51;;;;;;;17.35;2.78;;;;;;;;;;5074338;28;20119;-46
2022/12/21 10:45:20;;;;;;;78.75;5.38;;;;;;;;;;5056200;28;20033;-47
2022/12/21 10:47:47;;;;;;;22.92;3.00;;;;;;;;;;5054034;28;20083;-46
2022/12/21 10:50:25;;;;;;;21.08;3.10;;;;;;;;;;5053927;28;20033;-46
2022/12/21 10:52:53;;;;;;;31.50;3.30;;;;;;;;;;5062419;28;20047;-47
2022/12/21 10:55:20;;;;;;;41.92;4.20;;;;;;;;;;5070441;28;20041;-51
2022/12/21 10:57:50;;;;;;;33.10;4.25;;;;;;;;;;5072119;28;20033;-47
2022/12/21 11:00:25;;;;;;;27.80;3.78;;;;;;;;;;5064495;28;20025;-47
2022/12/21 11:02:53;;;;;;;22.08;3.67;;;;;;;;;;5071600;28;20375;-49
2022/12/21 11:05:26;;;;;;;24.15;2.90;;;;;;;;;;5064515;28;20086;-51
2022/12/21 11:07:53;;;;;;;14.95;2.72;;;;;;;;;;5043763;28;20492;-51
2022/12/21 11:10:27;;;;;;;102.28;5.38;;;;;;;;;;5061735;28;20025;-52
2022/12/21 11:12:54;;;;;;;27.70;3.05;;;;;;;;;;5061547;28;20053;-51
2022/12/21 11:15:22;;;;;;;16.30;1.98;;;;;;;;;;5065668;28;20044;-46
2022/12/21 11:17:49;;;;;;;11.57;1.75;;;;;;;;;;5056087;28;20056;-52
2022/12/21 11:20:21;;;;;;;18.60;2.53;;;;;;;;;;5053469;28;20025;-46
2022/12/21 11:22:51;;;;;;;22.98;2.78;;;;;;;;;;5052457;28;20029;-45
2022/12/21 11:25:20;;;;;;;459.00;31.90;;;;;;;;;;5053610;28;20032;-48
2022/12/21 11:27:49;;;;;;;145.38;12.32;;;;;;;;;;5053365;28;20449;-45
2022/12/21 11:30:21;;;;;;;60.50;6.20;;;;;;;;;;5053235;28;20037;-46
2022/12/21 11:32:49;;;;;;;126.35;7.90;;;;;;;;;;5053036;28;20060;-56
2022/12/21 11:35:23;;;;;;;66.10;5.22;;;;;;;;;;5053256;28;20495;-47
2022/12/21 11:37:57;;;;;;;71.00;7.78;;;;;;;;;;5053219;28;20029;-44
2022/12/21 11:40:25;;;;;;;70.60;5.38;;;;;;;;;;5053161;28;20037;-52
2022/12/21 11:43:02;;;;;;;58.17;4.30;;;;;;;;;;5052944;28;20025;-45
2022/12/21 11:45:49;;;;;;;23.17;3.03;;;;;;;;;;5053174;28;20033;-42
2022/12/21 11:48:29;;;;;;;31.05;2.97;;;;;;;;;;5052160;28;20656;-43
2022/12/21 11:50:56;;;;;;;58.47;3.75;;;;;;;;;;5052949;28;20078;-52
2022/12/21 11:53:41;;;;;;;31.90;2.92;;;;;;;;;;5052940;28;20554;-39
2022/12/21 11:56:11;;;;;;;36.90;2.70;;;;;;;;;;5052799;28;20021;-41
2022/12/21 11:59:01;;;;;;;149.82;6.93;;;;;;;;;;5052927;28;20021;-43
2022/12/21 12:01:28;;;;;;;84.00;3.72;;;;;;;;;;5052522;28;20029;-44
2022/12/21 12:06:45;;;;;;;112.93;6.18;;;;;;;;;;5029164;28;20095;-40
2022/12/21 12:09:21;;;;;;;211.65;13.50;;;;;;;;;;5032379;28;20104;-41
2022/12/21 12:12:11;;;;;;;53.47;4.97;;;;;;;;;;5032491;28;20033;-40
2022/12/21 12:15:01;;;;;;;42.15;3.20;;;;;;;;;;5032294;28;20133;-40
2022/12/21 12:17:46;;;;;;;33.95;2.88;;;;;;;;;;5029300;28;20046;-40
2022/12/21 12:20:31;;;;;;;26.83;2.40;;;;;;;;;;5031792;28;20033;-40
2022/12/21 12:23:09;;;;;;;51.53;3.45;;;;;;;;;;5032285;28;20030;-40
2022/12/21 12:25:39;;;;;;;144.77;8.73;;;;;;;;;;5031863;28;20080;-40
2022/12/21 12:28:18;;;;;;;113.90;9.63;;;;;;;;;;5032254;28;20033;-41
2022/12/21 12:31:03;;;;;;;207.02;15.50;;;;;;;;;;5031984;28;20025;-41
2022/12/21 12:33:36;;;;;;;55.10;4.72;;;;;;;;;;5032027;28;20045;-40
2022/12/21 12:36:06;;;;;;;43.95;3.55;;;;;;;;;;5030330;28;20466;-40
2022/12/21 12:38:45;;;;;;;87.68;9.55;;;;;;;;;;5030973;28;20534;-40
2022/12/21 12:41:15;;;;;;;754.65;65.28;;;;;;;;;;5031373;28;20053;-41
2022/12/21 12:44:05;;;;;;;448.58;39.15;;;;;;;;;;5031094;28;20033;-40
2022/12/21 12:46:50;;;;;;;175.65;16.23;;;;;;;;;;5026215;28;20030;-40
2022/12/21 12:49:17;;;;;;;125.72;10.07;;;;;;;;;;5031363;28;20022;-40
2022/12/21 12:51:57;;;;;;;231.18;15.15;;;;;;;;;;5031154;28;20033;-40
2022/12/21 12:54:35;;;;;;;138.63;10.77;;;;;;;;;;5031330;28;20041;-40
2022/12/21 12:57:02;;;;;;;84.10;6.95;;;;;;;;;;5031167;28;20029;-41
2022/12/21 12:59:37;;;;;;;56.47;5.40;;;;;;;;;;5032229;28;20033;-40
2022/12/21 13:02:07;;;;;;;40.97;4.22;;;;;;;;;;5035559;28;20104;-40
2022/12/21 13:04:34;;;;;;;31.73;3.70;;;;;;;;;;5034925;28;20045;-41
2022/12/21 13:07:07;;;;;;;28.65;3.13;;;;;;;;;;5035160;28;20392;-40
2022/12/21 13:09:49;;;;;;;38.30;3.28;;;;;;;;;;5035390;28;20030;-40
2022/12/21 13:12:28;;;;;;;39.78;3.22;;;;;;;;;;5035235;28;20037;-41
2022/12/21 13:15:04;;;;;;;31.33;3.78;;;;;;;;;;5035191;28;20042;-40
2022/12/21 13:17:34;;;;;;;27.95;2.80;;;;;;;;;;5035124;28;20072;-40
2022/12/21 13:20:01;;;;;;;24.95;2.70;;;;;;;;;;5035304;28;20060;-40
2022/12/21 13:22:30;;;;;;;81.78;4.38;;;;;;;;;;5034823;28;20033;-40
2022/12/21 13:25:03;;;;;;;39.35;2.75;;;;;;;;;;5034985;28;20125;-40
2022/12/21 13:27:32;;;;;;;28.73;2.67;;;;;;;;;;5035036;28;20069;-40
2022/12/21 13:30:06;;;;;;;16.58;2.00;;;;;;;;;;5034859;28;20040;-40
2022/12/21 13:32:37;;;;;;;20.95;2.22;;;;;;;;;;5034779;28;20025;-41
2022/12/21 13:35:04;;;;;;;28.15;2.58;;;;;;;;;;5034936;28;20072;-40
2022/12/21 13:37:31;;;;;;;20.15;2.85;;;;;;;;;;5034685;28;20085;-41
2022/12/21 13:40:01;;;;;;;26.83;2.75;;;;;;;;;;5034737;28;20024;-40
2022/12/21 13:42:36;;;;;;;19.80;2.80;;;;;;;;;;5034821;28;20037;-40
2022/12/21 13:45:07;;;;;;;21.45;3.10;;;;;;;;;;5034585;28;20025;-40
2022/12/21 13:47:36;;;;;;;25.95;3.22;;;;;;;;;;5034533;28;20017;-40
2022/12/21 13:50:15;;;;;;;33.08;3.38;;;;;;;;;;5034776;28;20029;-40
2022/12/21 13:52:53;;;;;;;24.92;2.60;;;;;;;;;;5034377;28;20475;-41
2022/12/21 13:55:39;;;;;;;29.98;3.70;;;;;;;;;;5034575;28;20471;-40
2022/12/21 13:58:08;;;;;;;20.85;3.25;;;;;;;;;;5034634;28;20028;-40
2022/12/21 14:00:40;;;;;;;22.10;2.85;;;;;;;;;;5016475;28;20057;-41
2022/12/21 14:03:25;;;;;;;15.93;3.00;;;;;;;;;;5034512;28;20100;-40
2022/12/21 14:05:55;;;;;;;21.00;3.00;;;;;;;;;;5034121;28;20131;-40
2022/12/21 14:08:34;;;;;;;22.83;3.15;;;;;;;;;;5034080;28;20109;-40
2022/12/21 14:11:01;;;;;;;15.48;2.97;;;;;;;;;;5033817;28;20052;-40
2022/12/21 14:13:57;;;;;;;20.05;2.72;;;;;;;;;;5033959;28;20048;-40
2022/12/21 14:16:26;;;;;;;23.77;3.47;;;;;;;;;;5034116;28;20029;-40
2022/12/21 14:18:57;;;;;;;23.10;3.47;;;;;;;;;;5034217;28;20018;-40
2022/12/21 14:21:25;;;;;;;31.23;3.33;;;;;;;;;;5034029;28;20033;-41
2022/12/21 14:23:57;;;;;;;28.38;3.60;;;;;;;;;;5033936;28;20045;-40
2022/12/21 14:26:37;;;;;;;25.83;3.67;;;;;;;;;;5034181;28;20576;-40
2022/12/21 14:29:11;;;;;;;29.25;4.15;;;;;;;;;;5033488;28;20028;-40
2022/12/21 14:31:38;;;;;;;25.92;3.97;;;;;;;;;;5034109;28;20034;-40
2022/12/21 14:34:09;;;;;;;26.27;3.85;;;;;;;;;;5033763;28;20391;-41
2022/12/21 14:36:36;;;;;;;24.50;4.10;;;;;;;;;;5033568;28;20083;-40
2022/12/21 14:39:02;;;;;;;29.98;3.80;;;;;;;;;;5033895;28;20045;-40
2022/12/21 14:41:32;;;;;;;29.25;4.35;;;;;;;;;;5033851;28;20061;-41
2022/12/21 14:44:11;;;;;;;22.48;3.72;;;;;;;;;;5033039;28;20029;-40
2022/12/21 14:46:39;;;;;;;26.23;3.85;;;;;;;;;;5034023;28;20382;-40
2022/12/21 14:49:28;;;;;;;31.83;4.00;;;;;;;;;;5033538;28;20080;-41
2022/12/21 14:51:56;;;;;;;29.40;4.00;;;;;;;;;;5033135;28;20037;-40
2022/12/21 14:54:30;;;;;;;27.10;4.15;;;;;;;;;;5033354;28;20033;-40
2022/12/21 14:57:09;;;;;;;17.17;4.10;;;;;;;;;;5033348;28;20033;-40
2022/12/21 14:59:58;;;;;;;28.35;4.20;;;;;;;;;;5033151;28;20546;-40
2022/12/21 15:02:25;;;;;;;27.08;4.03;;;;;;;;;;5027924;28;20129;-40
2022/12/21 15:04:57;;;;;;;32.20;4.93;;;;;;;;;;5032489;28;20511;-41
2022/12/21 15:07:28;;;;;;;36.25;4.38;;;;;;;;;;5033366;28;20068;-41
2022/12/21 15:09:59;;;;;;;23.70;5.00;;;;;;;;;;5033184;28;20032;-40